Time;durP1;ratioP1;P1;durP2;ratioP2;P2;SDS_P1;SDS_P2;PMS_P1;PMS_P2;Temp;Humidity;BMP_temperature;BMP_pressure;BME280_temperature;BME280_humidity;BME280_pressure;Samples;Min_cycle;Max_cycle;Signal;HPM_P1;HPM_P2
2024/03/14 00:01:07;;;;;;;7.07;5.60;;;10.90;99.90;;;;;;5032679;28;20056;-92
2024/03/14 00:03:33;;;;;;;7.43;5.28;;;11.00;99.90;;;;;;5037348;28;20393;-92
2024/03/14 00:06:01;;;;;;;7.20;5.15;;;10.90;99.90;;;;;;5037707;28;20037;-91
2024/03/14 00:08:27;;;;;;;8.60;5.82;;;10.90;99.90;;;;;;5027685;28;20034;-92
2024/03/14 00:10:54;;;;;;;8.65;5.85;;;10.90;99.90;;;;;;5029777;28;20541;-92
2024/03/14 00:13:20;;;;;;;12.25;5.00;;;10.90;99.90;;;;;;5037598;28;20022;-92
2024/03/14 00:15:46;;;;;;;8.85;5.18;;;10.90;99.90;;;;;;5021170;28;20036;-92
2024/03/14 00:18:12;;;;;;;8.88;5.82;;;10.90;99.90;;;;;;5022600;28;20022;-92
2024/03/14 00:20:41;;;;;;;10.30;6.20;;;10.90;99.90;;;;;;5036731;28;20017;-92
2024/03/14 00:23:08;;;;;;;8.55;6.13;;;10.80;99.90;;;;;;5036248;28;20454;-92
2024/03/14 00:25:34;;;;;;;8.63;5.60;;;10.70;99.90;;;;;;5036803;28;20033;-92
2024/03/14 00:28:00;;;;;;;7.07;4.93;;;10.70;99.90;;;;;;5031803;28;20033;-92
2024/03/14 00:30:27;;;;;;;9.38;4.82;;;10.60;99.90;;;;;;5032530;28;20029;-92
2024/03/14 00:32:53;;;;;;;6.75;5.18;;;10.60;99.90;;;;;;5029308;28;20030;-93
2024/03/14 00:35:19;;;;;;;8.02;5.22;;;10.60;99.90;;;;;;5022083;28;20381;-92
2024/03/14 00:37:45;;;;;;;7.63;5.25;;;10.60;99.90;;;;;;5020489;28;20469;-91
2024/03/14 00:40:11;;;;;;;8.55;5.60;;;10.60;99.90;;;;;;5037699;28;20017;-93
2024/03/14 00:42:43;;;;;;;7.28;5.32;;;10.50;99.90;;;;;;5038126;28;20026;-92
2024/03/14 00:45:09;;;;;;;6.38;5.22;;;10.50;99.90;;;;;;5035250;28;20033;-92
2024/03/14 00:47:35;;;;;;;7.85;5.47;;;10.50;99.90;;;;;;5032919;28;20484;-92
2024/03/14 00:50:01;;;;;;;8.38;5.30;;;10.40;99.90;;;;;;5035263;28;20108;-92
2024/03/14 00:52:27;;;;;;;7.25;5.60;;;10.40;99.90;;;;;;5027873;28;20030;-91
2024/03/14 00:54:53;;;;;;;8.02;5.32;;;10.40;99.90;;;;;;5016071;28;20079;-91
2024/03/14 00:57:18;;;;;;;7.15;5.18;;;10.30;99.90;;;;;;5016807;28;20036;-92
2024/03/14 00:59:46;;;;;;;8.13;4.88;;;10.30;99.90;;;;;;5036022;28;20025;-91
2024/03/14 01:02:12;;;;;;;9.82;5.78;;;10.30;99.90;;;;;;5028763;28;20057;-91
2024/03/14 01:04:37;;;;;;;6.80;4.93;;;10.20;99.90;;;;;;5035090;28;20557;-92
2024/03/14 01:07:03;;;;;;;8.63;5.22;;;10.10;99.90;;;;;;5036352;28;20622;-92
2024/03/14 01:09:30;;;;;;;6.07;5.15;;;10.00;99.90;;;;;;5037417;28;20028;-92
2024/03/14 01:11:56;;;;;;;6.60;4.97;;;10.00;99.90;;;;;;5037792;28;20036;-91
2024/03/14 01:14:22;;;;;;;7.18;5.03;;;10.00;99.90;;;;;;5036492;28;20030;-91
2024/03/14 01:16:51;;;;;;;7.88;5.97;;;9.90;99.90;;;;;;5033160;28;20029;-92
2024/03/14 01:19:17;;;;;;;7.80;5.40;;;9.90;99.90;;;;;;5032062;28;20056;-92
2024/03/14 01:21:43;;;;;;;9.55;5.63;;;9.90;99.90;;;;;;5034968;28;20108;-92
2024/03/14 01:24:10;;;;;;;9.43;5.03;;;9.90;99.90;;;;;;5028279;28;20108;-92
2024/03/14 01:26:36;;;;;;;8.48;5.00;;;9.80;99.90;;;;;;5035913;28;20672;-92
2024/03/14 01:29:03;;;;;;;5.50;4.85;;;9.80;99.90;;;;;;5023535;28;20500;-92
2024/03/14 01:31:29;;;;;;;7.30;5.45;;;9.80;99.90;;;;;;5032000;28;20110;-94
2024/03/14 01:33:54;;;;;;;8.23;5.55;;;9.80;99.90;;;;;;5036149;28;20064;-92
2024/03/14 01:39:42;;;;;;;7.65;5.15;;;9.70;99.90;;;;;;5031215;28;20042;-92
2024/03/14 01:42:12;;;;;;;8.25;5.55;;;9.70;99.90;;;;;;5035655;28;20456;-92
2024/03/14 01:44:54;;;;;;;10.55;5.22;;;9.60;99.90;;;;;;5036785;28;20065;-91
2024/03/14 01:47:21;;;;;;;8.65;5.53;;;9.60;99.90;;;;;;5020563;28;20054;-92
2024/03/14 01:49:48;;;;;;;7.00;5.82;;;9.60;99.90;;;;;;5039153;28;20074;-92
2024/03/14 01:52:13;;;;;;;7.35;4.93;;;9.50;99.90;;;;;;5030422;28;20120;-93
2024/03/14 01:54:39;;;;;;;9.07;5.32;;;9.50;99.90;;;;;;5034240;28;20593;-92
2024/03/14 01:57:05;;;;;;;8.80;4.88;;;9.50;99.90;;;;;;5026686;28;20384;-91
2024/03/14 01:59:31;;;;;;;8.52;5.35;;;9.50;99.90;;;;;;5039229;28;20019;-93
2024/03/14 02:01:57;;;;;;;6.35;5.15;;;9.50;99.90;;;;;;5046892;28;20036;-93
2024/03/14 02:04:54;;;;;;;6.82;4.88;;;9.50;99.90;;;;;;5044073;28;20093;-91
2024/03/14 02:07:25;;;;;;;6.63;5.28;;;9.40;99.90;;;;;;5027535;28;20034;-91
2024/03/14 02:09:51;;;;;;;7.97;6.13;;;9.40;99.90;;;;;;5028104;28;20021;-92
2024/03/14 02:12:18;;;;;;;8.25;5.93;;;9.40;99.90;;;;;;5034970;28;20034;-91
2024/03/14 02:14:44;;;;;;;8.30;5.68;;;9.40;99.90;;;;;;5036030;28;20026;-92
2024/03/14 02:17:10;;;;;;;7.55;4.90;;;9.40;99.90;;;;;;5035933;28;20028;-92
2024/03/14 02:19:39;;;;;;;5.95;4.80;;;9.40;99.90;;;;;;5034998;28;20026;-90
2024/03/14 02:22:16;;;;;;;9.50;5.00;;;9.30;99.90;;;;;;5025827;28;20049;-93
2024/03/14 02:24:42;;;;;;;6.45;4.82;;;9.30;99.90;;;;;;5034459;28;20036;-91
2024/03/14 02:27:09;;;;;;;12.07;5.90;;;9.30;99.90;;;;;;5035867;28;20030;-92
2024/03/14 02:29:35;;;;;;;7.95;5.05;;;9.30;99.90;;;;;;5035711;28;20098;-91
2024/03/14 02:32:01;;;;;;;7.70;5.13;;;9.20;99.90;;;;;;5036474;28;20120;-92
2024/03/14 02:34:26;;;;;;;7.32;5.63;;;9.30;99.90;;;;;;5039679;28;20117;-93
2024/03/14 02:36:52;;;;;;;7.13;4.80;;;9.30;99.90;;;;;;5038895;28;20168;-92
2024/03/14 02:39:22;;;;;;;7.25;5.22;;;9.30;99.90;;;;;;5038847;28;20029;-91
2024/03/14 02:41:50;;;;;;;5.95;5.10;;;9.30;99.90;;;;;;5028474;28;20115;-91
2024/03/14 02:44:18;;;;;;;10.70;6.38;;;9.30;99.90;;;;;;5035086;28;20031;-92
2024/03/14 02:46:45;;;;;;;9.50;6.63;;;9.30;99.90;;;;;;5029505;28;20030;-92
2024/03/14 02:49:14;;;;;;;8.55;6.63;;;9.30;99.90;;;;;;5033819;28;20021;-92
2024/03/14 02:51:49;;;;;;;10.45;8.30;;;9.30;99.90;;;;;;5039074;28;20021;-91
2024/03/14 02:54:15;;;;;;;10.57;7.00;;;9.30;99.90;;;;;;5041158;28;20426;-91
2024/03/14 02:56:42;;;;;;;12.00;8.15;;;9.40;99.90;;;;;;5040117;28;20018;-92
2024/03/14 02:59:10;;;;;;;10.68;7.10;;;9.40;99.90;;;;;;5034681;28;20033;-90
2024/03/14 03:01:37;;;;;;;10.65;7.22;;;9.40;99.90;;;;;;5024812;28;20018;-92
2024/03/14 03:04:03;;;;;;;9.68;7.10;;;9.40;99.90;;;;;;5023284;28;20026;-92
2024/03/14 03:06:30;;;;;;;11.00;7.82;;;9.40;99.90;;;;;;5021898;28;20101;-92
2024/03/14 03:08:59;;;;;;;12.98;7.53;;;9.40;99.90;;;;;;5019847;28;20022;-91
2024/03/14 03:11:31;;;;;;;12.73;7.07;;;9.40;99.90;;;;;;5034484;28;20151;-90
2024/03/14 03:13:57;;;;;;;9.80;6.57;;;9.30;99.90;;;;;;5037617;28;20434;-92
2024/03/14 03:16:24;;;;;;;8.88;6.00;;;9.30;99.90;;;;;;5038004;28;20029;-92
2024/03/14 03:18:52;;;;;;;8.32;5.90;;;9.20;99.90;;;;;;5038312;28;20021;-92
2024/03/14 03:21:18;;;;;;;7.93;5.22;;;9.30;99.90;;;;;;5037131;28;20029;-90
2024/03/14 03:23:44;;;;;;;8.10;5.70;;;9.30;99.90;;;;;;5020442;28;20489;-91
2024/03/14 03:26:10;;;;;;;7.07;4.90;;;9.20;99.90;;;;;;5033711;28;20077;-92
2024/03/14 03:28:36;;;;;;;5.88;4.65;;;9.20;99.90;;;;;;5038131;28;20545;-92
2024/03/14 03:31:08;;;;;;;7.32;5.38;;;9.00;99.90;;;;;;5038875;28;20027;-91
2024/03/14 03:33:34;;;;;;;8.00;4.50;;;9.00;99.90;;;;;;5037682;28;20041;-92
2024/03/14 03:36:04;;;;;;;9.20;5.60;;;8.90;99.90;;;;;;5038668;28;20026;-91
2024/03/14 03:38:32;;;;;;;6.22;4.25;;;8.80;99.90;;;;;;5028988;28;20093;-92
2024/03/14 03:40:58;;;;;;;;;;;8.80;99.90;;;;;;5030539;28;20029;-90
2024/03/14 03:43:26;;;;;;;6.93;4.57;;;8.80;99.90;;;;;;5030337;28;19905;-93
2024/03/14 03:45:52;;;;;;;;;;;8.70;99.90;;;;;;5039080;28;20025;-92
2024/03/14 03:48:18;;;;;;;6.78;4.20;;;8.70;99.90;;;;;;5038262;28;20473;-91
2024/03/14 03:50:43;;;;;;;7.35;4.80;;;8.80;99.90;;;;;;5036936;28;20037;-92
2024/03/14 03:53:09;;;;;;;7.97;5.97;;;8.80;99.90;;;;;;5038623;28;20368;-92
2024/03/14 03:55:35;;;;;;;9.48;5.70;;;8.80;99.90;;;;;;5035972;28;20048;-92
2024/03/14 03:58:01;;;;;;;8.15;6.72;;;8.80;99.90;;;;;;5029381;28;20049;-93
2024/03/14 04:00:33;;;;;;;8.07;5.43;;;8.80;99.90;;;;;;5023296;28;20144;-91
2024/03/14 04:02:59;;;;;;;7.10;4.95;;;8.80;99.90;;;;;;5026065;28;20095;-92
2024/03/14 04:05:25;;;;;;;7.32;5.38;;;8.70;99.90;;;;;;5034516;28;20025;-91
2024/03/14 04:07:55;;;;;;;7.65;5.13;;;8.70;99.90;;;;;;5028771;28;20031;-90
2024/03/14 04:10:23;;;;;;;7.00;5.22;;;8.60;99.90;;;;;;5030380;28;20495;-92
2024/03/14 04:12:53;;;;;;;6.18;4.55;;;8.60;99.90;;;;;;5037998;28;20052;-92
2024/03/14 04:15:23;;;;;;;8.93;4.47;;;8.60;99.90;;;;;;5037747;28;20404;-92
2024/03/14 04:17:54;;;;;;;6.57;5.13;;;8.50;99.90;;;;;;5037077;28;20033;-93
2024/03/14 04:20:23;;;;;;;6.47;5.32;;;8.50;99.90;;;;;;5023249;28;20416;-92
2024/03/14 04:22:50;;;;;;;9.80;7.35;;;8.50;99.90;;;;;;5036393;28;20071;-91
2024/03/14 04:25:17;;;;;;;8.35;5.57;;;8.40;99.90;;;;;;5035979;28;20032;-89
2024/03/14 04:27:52;;;;;;;5.40;4.45;;;8.40;99.90;;;;;;5036706;28;20677;-91
2024/03/14 04:30:23;;;;;;;5.97;4.65;;;8.40;99.90;;;;;;5035873;28;20033;-91
2024/03/14 04:32:49;;;;;;;10.15;4.75;;;8.40;99.90;;;;;;5036038;28;20057;-92
2024/03/14 04:35:16;;;;;;;9.68;4.60;;;8.40;99.90;;;;;;5036958;28;20117;-91
2024/03/14 04:37:47;;;;;;;6.80;5.00;;;8.30;99.90;;;;;;5036556;28;20022;-91
2024/03/14 04:40:13;;;;;;;9.75;4.78;;;8.30;99.90;;;;;;5030745;28;20014;-92
2024/03/14 04:42:42;;;;;;;5.95;4.90;;;8.20;99.90;;;;;;5034390;28;20084;-91
2024/03/14 04:45:12;;;;;;;6.43;4.43;;;8.30;99.90;;;;;;5037775;28;20451;-90
2024/03/14 04:47:39;;;;;;;6.22;3.85;;;8.20;99.90;;;;;;5036036;28;20476;-91
2024/03/14 04:50:09;;;;;;;6.20;5.00;;;8.30;99.90;;;;;;5031131;28;20056;-93
2024/03/14 04:52:39;;;;;;;6.72;4.85;;;8.20;99.90;;;;;;5031891;28;20430;-91
2024/03/14 04:55:08;;;;;;;8.07;4.13;;;8.20;99.90;;;;;;5036948;28;20104;-91
2024/03/14 04:57:34;;;;;;;7.15;4.32;;;8.10;99.90;;;;;;5026352;28;20014;-90
2024/03/14 05:00:00;;;;;;;9.30;4.50;;;8.00;99.90;;;;;;5036940;28;20036;-91
2024/03/14 05:02:29;;;;;;;9.52;4.65;;;7.90;99.90;;;;;;5048455;28;20021;-92
2024/03/14 05:04:56;;;;;;;6.50;4.07;;;7.80;99.90;;;;;;5028524;28;20052;-92
2024/03/14 05:07:25;;;;;;;7.47;3.83;;;7.80;99.90;;;;;;5035854;28;20030;-92
2024/03/14 05:09:51;;;;;;;4.65;3.25;;;7.70;99.90;;;;;;5042238;28;20025;-92
2024/03/14 05:12:18;;;;;;;5.53;4.60;;;7.70;99.90;;;;;;5042025;28;20026;-89
2024/03/14 05:14:43;;;;;;;7.95;3.47;;;7.60;99.90;;;;;;5036642;28;20112;-87
2024/03/14 05:17:21;;;;;;;5.55;4.18;;;7.60;99.90;;;;;;5036296;28;20404;-88
2024/03/14 05:19:47;;;;;;;7.70;4.93;;;7.70;99.90;;;;;;5037404;28;20076;-89
2024/03/14 05:22:15;;;;;;;8.57;3.95;;;7.70;99.90;;;;;;5030198;28;20026;-89
2024/03/14 05:24:43;;;;;;;4.90;3.95;;;7.70;99.90;;;;;;5032540;28;20022;-90
2024/03/14 05:27:09;;;;;;;5.60;3.72;;;7.60;99.90;;;;;;5036159;28;20479;-88
2024/03/14 05:29:36;;;;;;;4.88;3.72;;;7.70;99.90;;;;;;5035159;28;20041;-89
2024/03/14 05:32:04;;;;;;;5.13;3.72;;;7.70;99.90;;;;;;5034850;28;20025;-87
2024/03/14 05:34:32;;;;;;;5.60;3.85;;;7.70;99.90;;;;;;5035118;28;20033;-90
2024/03/14 05:36:58;;;;;;;5.50;4.35;;;7.70;99.90;;;;;;5035868;28;20014;-90
2024/03/14 05:39:24;;;;;;;6.63;3.83;;;7.70;99.90;;;;;;5035370;28;20095;-89
2024/03/14 05:41:51;;;;;;;6.53;4.70;;;7.70;99.90;;;;;;5026849;28;20475;-91
2024/03/14 05:44:17;;;;;;;5.97;4.07;;;7.70;99.90;;;;;;5026942;28;20034;-90
2024/03/14 05:46:46;;;;;;;5.07;4.05;;;7.60;99.90;;;;;;5035928;28;20098;-89
2024/03/14 05:49:12;;;;;;;5.75;4.18;;;7.50;99.90;;;;;;5035620;28;20026;-90
2024/03/14 05:51:38;;;;;;;7.53;4.95;;;7.50;99.90;;;;;;5037139;28;20024;-89
2024/03/14 05:54:04;;;;;;;10.75;5.40;;;7.40;99.90;;;;;;5036911;28;20025;-89
2024/03/14 05:56:30;;;;;;;5.95;4.63;;;7.40;99.90;;;;;;5035610;28;20085;-89
2024/03/14 05:58:59;;;;;;;4.80;4.28;;;7.30;99.90;;;;;;5037176;28;20018;-91
2024/03/14 06:01:27;;;;;;;6.20;3.55;;;7.30;99.90;;;;;;5035119;28;20037;-89
2024/03/14 06:03:54;;;;;;;;;;;7.30;99.90;;;;;;5037517;28;20018;-91
2024/03/14 06:06:19;;;;;;;8.68;4.75;;;7.30;99.90;;;;;;5043562;28;19910;-90
2024/03/14 06:08:49;;;;;;;6.50;4.80;;;7.20;99.90;;;;;;5039052;28;20515;-91
2024/03/14 06:11:14;;;;;;;5.20;4.55;;;7.10;99.90;;;;;;5040377;28;20021;-90
2024/03/14 06:13:40;;;;;;;6.03;3.53;;;7.20;99.90;;;;;;5039466;28;20025;-90
2024/03/14 06:16:08;;;;;;;14.45;4.35;;;7.20;99.90;;;;;;5036061;28;20036;-90
2024/03/14 06:18:34;;;;;;;6.85;4.60;;;7.20;99.90;;;;;;5040579;28;20028;-89
2024/03/14 06:21:00;;;;;;;5.93;4.43;;;7.20;99.90;;;;;;5039304;28;20022;-90
2024/03/14 06:23:26;;;;;;;8.13;5.22;;;7.20;99.90;;;;;;5038747;28;20022;-91
2024/03/14 06:25:52;;;;;;;9.63;6.15;;;7.30;99.90;;;;;;5034618;28;20037;-89
2024/03/14 06:28:17;;;;;;;7.72;5.80;;;7.30;99.90;;;;;;5032948;28;20037;-90
2024/03/14 06:30:43;;;;;;;9.57;6.25;;;7.40;99.90;;;;;;5030024;28;20033;-91
2024/03/14 06:33:08;;;;;;;9.45;7.32;;;7.50;99.90;;;;;;5039716;28;20033;-92
2024/03/14 06:35:34;;;;;;;9.90;6.35;;;7.50;99.90;;;;;;5039673;28;20176;-93
2024/03/14 06:38:00;;;;;;;8.27;6.40;;;7.50;99.90;;;;;;5030179;28;20037;-91
2024/03/14 06:40:25;;;;;;;9.90;6.50;;;7.60;99.90;;;;;;5028461;28;20029;-92
2024/03/14 06:42:53;;;;;;;32.65;7.85;;;7.60;99.90;;;;;;5019871;28;20021;-91
2024/03/14 06:45:19;;;;;;;9.98;6.60;;;7.60;99.90;;;;;;5027138;28;20039;-92
2024/03/14 06:47:45;;;;;;;10.18;6.40;;;7.60;99.90;;;;;;5027885;28;20025;-93
2024/03/14 06:50:12;;;;;;;11.82;7.28;;;7.60;99.90;;;;;;5024690;28;20025;-92
2024/03/14 06:52:41;;;;;;;8.55;6.35;;;7.90;99.90;;;;;;5025669;28;20033;-92
2024/03/14 06:55:09;;;;;;;9.02;6.65;;;7.80;99.90;;;;;;5028771;28;20037;-91
2024/03/14 06:57:39;;;;;;;8.50;5.75;;;7.80;99.90;;;;;;5029353;28;20511;-92
2024/03/14 07:00:22;;;;;;;8.82;6.80;;;7.80;99.90;;;;;;5024580;28;20048;-92
2024/03/14 07:02:52;;;;;;;9.35;7.75;;;7.80;99.90;;;;;;5026331;28;20099;-92
2024/03/14 07:05:19;;;;;;;14.52;10.00;;;7.80;99.90;;;;;;5029055;28;20036;-91
2024/03/14 07:07:45;;;;;;;9.80;8.55;;;7.70;99.90;;;;;;5027811;28;20565;-91
2024/03/14 07:10:14;;;;;;;12.10;7.90;;;7.80;99.90;;;;;;5025092;28;20037;-92
2024/03/14 07:12:45;;;;;;;11.68;8.15;;;7.80;99.90;;;;;;5026505;28;20573;-91
2024/03/14 07:15:12;;;;;;;15.55;9.57;;;7.80;99.90;;;;;;5027420;28;20057;-92
2024/03/14 07:17:38;;;;;;;9.95;7.15;;;7.80;99.90;;;;;;5026801;28;20024;-93
2024/03/14 07:20:17;;;;;;;10.27;6.85;;;7.80;99.90;;;;;;5019676;28;20026;-94
2024/03/14 07:22:44;;;;;;;10.23;7.53;;;7.70;99.90;;;;;;5023067;28;20094;-94
2024/03/14 07:25:13;;;;;;;9.38;6.65;;;7.70;99.90;;;;;;5024039;28;20027;-91
2024/03/14 07:27:39;;;;;;;9.15;6.75;;;7.80;99.90;;;;;;5035970;28;20034;-92
2024/03/14 07:30:07;;;;;;;10.48;7.28;;;7.70;99.90;;;;;;5018415;28;20044;-94
2024/03/14 07:32:35;;;;;;;10.55;6.75;;;7.70;99.90;;;;;;5025992;28;20561;-93
2024/03/14 07:35:02;;;;;;;7.70;6.20;;;7.70;99.90;;;;;;5035270;28;20033;-90
2024/03/14 07:37:28;;;;;;;9.27;6.35;;;7.80;99.90;;;;;;5027531;28;20504;-91
2024/03/14 07:39:54;;;;;;;10.88;6.43;;;7.80;99.90;;;;;;5020455;28;20040;-92
2024/03/14 07:42:20;;;;;;;11.43;7.00;;;7.90;99.90;;;;;;5031556;28;20021;-93
2024/03/14 07:44:45;;;;;;;10.23;7.40;;;8.00;99.90;;;;;;5035902;28;20025;-93
2024/03/14 07:47:19;;;;;;;9.73;6.63;;;8.10;99.90;;;;;;5036565;28;20025;-91
2024/03/14 07:49:46;;;;;;;10.48;6.97;;;8.10;99.90;;;;;;5035782;28;20029;-90
2024/03/14 07:52:13;;;;;;;10.38;7.55;;;8.30;99.90;;;;;;5034593;28;20022;-93
2024/03/14 07:54:39;;;;;;;17.60;7.70;;;8.40;99.90;;;;;;5028496;28;20037;-92
2024/03/14 07:57:05;;;;;;;15.10;8.93;;;8.40;99.90;;;;;;5036514;28;20171;-92
2024/03/14 07:59:32;;;;;;;26.83;8.23;;;8.30;99.90;;;;;;5036361;28;20421;-93
2024/03/14 08:01:58;;;;;;;18.77;8.55;;;8.40;99.90;;;;;;5035102;28;20104;-93
2024/03/14 08:04:24;;;;;;;13.85;8.43;;;8.50;99.90;;;;;;5028141;28;20143;-91
2024/03/14 08:06:51;;;;;;;21.63;8.90;;;8.60;99.90;;;;;;5035362;28;20510;-92
2024/03/14 08:09:19;;;;;;;25.27;9.07;;;8.50;99.90;;;;;;5029616;28;20112;-92
2024/03/14 08:11:47;;;;;;;31.60;9.80;;;8.70;99.90;;;;;;5036009;28;20263;-93
2024/03/14 08:14:13;;;;;;;22.55;8.98;;;8.80;99.90;;;;;;5036269;28;20033;-92
2024/03/14 08:16:38;;;;;;;56.22;11.02;;;8.80;99.90;;;;;;5038307;28;20026;-92
2024/03/14 08:19:09;;;;;;;15.65;8.25;;;8.70;99.90;;;;;;5054084;28;20053;-94
2024/03/14 08:21:36;;;;;;;44.88;10.02;;;8.90;99.90;;;;;;5041023;28;20581;-91
2024/03/14 08:24:11;;;;;;;17.20;8.82;;;9.00;99.90;;;;;;5023179;28;20055;-92
2024/03/14 08:26:37;;;;;;;30.27;9.00;;;9.10;99.90;;;;;;5024898;28;20096;-92
2024/03/14 08:29:02;;;;;;;21.65;9.10;;;9.20;99.90;;;;;;5019838;28;20639;-91
2024/03/14 08:31:28;;;;;;;13.63;7.82;;;9.30;99.90;;;;;;5024367;28;20030;-92
2024/03/14 08:33:56;;;;;;;15.85;8.00;;;9.30;99.90;;;;;;5024564;28;20022;-92
2024/03/14 08:36:21;;;;;;;16.70;9.15;;;9.30;99.90;;;;;;5016952;28;20024;-94
2024/03/14 08:38:48;;;;;;;19.40;8.30;;;9.10;99.90;;;;;;5034557;28;20109;-93
2024/03/14 08:41:14;;;;;;;16.40;9.50;;;9.20;99.90;;;;;;5035260;28;20020;-94
2024/03/14 08:43:40;;;;;;;15.95;8.60;;;9.30;99.90;;;;;;5024868;28;20026;-94
2024/03/14 08:46:09;;;;;;;25.20;10.95;;;9.30;99.90;;;;;;5015310;28;20128;-91
2024/03/14 08:48:34;;;;;;;16.58;8.52;;;9.20;99.90;;;;;;5024201;28;20030;-90
2024/03/14 08:51:01;;;;;;;18.67;9.88;;;9.20;99.90;;;;;;5033064;28;20032;-92
2024/03/14 08:53:37;;;;;;;23.13;9.77;;;9.20;99.90;;;;;;5033780;28;20017;-92
2024/03/14 08:56:07;;;;;;;18.35;8.43;;;9.30;99.90;;;;;;5030258;28;20029;-91
2024/03/14 08:58:33;;;;;;;19.10;10.05;;;9.40;99.90;;;;;;5032470;28;20071;-92
2024/03/14 09:00:59;;;;;;;17.17;9.30;;;9.50;99.90;;;;;;5034448;28;20029;-91
2024/03/14 09:03:25;;;;;;;18.92;9.90;;;9.60;99.90;;;;;;5026174;28;20499;-91
2024/03/14 09:05:51;;;;;;;16.75;9.25;;;9.80;99.90;;;;;;5034382;28;20032;-91
2024/03/14 09:08:21;;;;;;;18.05;9.25;;;10.10;99.90;;;;;;5024506;28;20029;-91
2024/03/14 09:10:47;;;;;;;20.35;14.10;;;10.20;99.90;;;;;;5034536;28;20052;-91
2024/03/14 09:13:14;;;;;;;17.80;10.95;;;10.40;99.90;;;;;;5025499;28;20029;-92
2024/03/14 09:15:40;;;;;;;14.02;9.48;;;10.60;99.90;;;;;;5016489;28;20072;-90
2024/03/14 09:18:06;;;;;;;15.13;9.50;;;10.60;99.90;;;;;;5013961;28;20022;-92
2024/03/14 09:20:32;;;;;;;15.18;10.48;;;10.60;99.90;;;;;;5029894;28;20054;-92
2024/03/14 09:22:58;;;;;;;61.42;30.77;;;10.60;99.90;;;;;;5016427;28;20036;-91
2024/03/14 09:25:26;;;;;;;26.50;15.27;;;10.80;99.90;;;;;;5020739;28;20048;-92
2024/03/14 09:27:52;;;;;;;19.25;10.57;;;11.20;99.90;;;;;;5016845;28;20033;-92
2024/03/14 09:30:18;;;;;;;17.88;11.38;;;11.30;99.90;;;;;;5027104;28;20041;-92
2024/03/14 09:32:45;;;;;;;19.27;12.95;;;11.30;99.90;;;;;;5026152;28;20029;-91
2024/03/14 09:35:15;;;;;;;14.48;8.27;;;11.50;99.90;;;;;;5025625;28;20047;-94
2024/03/14 09:37:43;;;;;;;11.93;7.63;;;11.80;99.90;;;;;;5033482;28;20025;-91
2024/03/14 09:40:13;;;;;;;13.27;8.20;;;11.90;99.90;;;;;;5031703;28;20018;-91
2024/03/14 09:42:47;;;;;;;13.52;9.23;;;11.90;99.90;;;;;;5033640;28;20131;-91
2024/03/14 09:45:14;;;;;;;12.75;8.02;;;12.10;99.90;;;;;;5034847;28;20037;-92
2024/03/14 09:47:41;;;;;;;15.18;7.65;;;12.40;99.90;;;;;;5034371;28;20033;-92
2024/03/14 09:50:10;;;;;;;10.82;7.10;;;12.50;99.90;;;;;;5033294;28;20025;-92
2024/03/14 09:52:36;;;;;;;11.88;7.10;;;12.60;99.90;;;;;;5033292;28;20040;-91
2024/03/14 09:55:02;;;;;;;13.18;8.10;;;12.60;99.90;;;;;;5033906;28;20066;-91
2024/03/14 09:57:29;;;;;;;11.88;7.60;;;12.50;99.90;;;;;;5033278;28;20045;-92
2024/03/14 09:59:56;;;;;;;11.05;6.78;;;12.60;99.90;;;;;;5029276;28;20026;-92
2024/03/14 10:02:25;;;;;;;13.18;8.48;;;12.90;99.90;;;;;;5034083;28;20057;-92
2024/03/14 10:04:51;;;;;;;14.07;10.10;;;13.20;99.90;;;;;;5031710;28;20036;-93
2024/03/14 10:07:17;;;;;;;12.18;8.27;;;13.30;99.90;;;;;;5031553;28;20025;-91
2024/03/14 10:09:43;;;;;;;11.57;7.18;;;13.60;99.90;;;;;;5030858;28;20083;-93
2024/03/14 10:12:14;;;;;;;8.60;7.03;;;13.50;99.90;;;;;;5019854;28;20097;-92
2024/03/14 10:14:41;;;;;;;10.65;7.25;;;13.70;99.90;;;;;;5030858;28;20538;-91
2024/03/14 10:17:12;;;;;;;8.13;6.70;;;14.00;99.10;;;;;;5033582;28;20022;-91
2024/03/14 10:19:38;;;;;;;10.02;7.32;;;14.00;97.20;;;;;;5031398;28;20025;-92
2024/03/14 10:22:07;;;;;;;9.25;6.20;;;14.00;97.90;;;;;;5031930;28;20041;-92
2024/03/14 10:24:36;;;;;;;8.93;5.57;;;14.20;96.50;;;;;;5033644;28;20021;-92
2024/03/14 10:27:04;;;;;;;9.43;5.70;;;14.70;93.30;;;;;;5029237;28;20034;-92
2024/03/14 10:29:33;;;;;;;9.02;6.57;;;14.80;91.00;;;;;;5031481;28;20037;-92
2024/03/14 10:32:00;;;;;;;9.45;5.57;;;15.10;90.50;;;;;;5024906;28;20599;-93
2024/03/14 10:34:26;;;;;;;7.95;5.57;;;15.20;88.00;;;;;;5031956;28;20072;-93
2024/03/14 10:36:54;;;;;;;8.00;5.65;;;15.60;86.80;;;;;;5032859;28;20029;-93
2024/03/14 10:39:23;;;;;;;8.70;5.28;;;15.70;84.30;;;;;;5030537;28;20096;-92
2024/03/14 10:41:49;;;;;;;6.95;4.30;;;15.80;83.90;;;;;;5030157;28;20075;-92
2024/03/14 10:44:19;;;;;;;5.43;3.33;;;15.80;81.40;;;;;;5020574;28;20666;-94
2024/03/14 10:46:50;;;;;;;6.30;3.83;;;15.70;80.60;;;;;;5024549;28;20033;-89
2024/03/14 10:49:20;;;;;;;7.25;5.03;;;15.70;77.50;;;;;;5019483;28;20082;-93
2024/03/14 10:51:51;;;;;;;5.53;3.15;;;15.60;82.50;;;;;;5034509;28;20020;-92
2024/03/14 10:54:26;;;;;;;10.65;4.22;;;15.80;76.10;;;;;;5037172;28;20060;-93
2024/03/14 10:56:52;;;;;;;5.80;3.25;;;15.70;76.40;;;;;;5031944;28;20487;-92
2024/03/14 10:59:22;;;;;;;4.18;3.38;;;15.90;75.90;;;;;;5033420;28;20025;-92
2024/03/14 11:01:54;;;;;;;4.43;3.55;;;16.20;75.20;;;;;;5022869;28;20033;-91
2024/03/14 11:04:20;;;;;;;6.13;4.35;;;16.00;75.70;;;;;;5032223;28;20033;-90
2024/03/14 11:06:50;;;;;;;4.32;2.97;;;16.30;75.80;;;;;;5018159;28;20496;-87
2024/03/14 11:09:24;;;;;;;3.53;3.22;;;16.50;73.10;;;;;;5030551;28;20391;-89
2024/03/14 11:11:55;;;;;;;4.28;3.22;;;17.00;73.20;;;;;;5035477;28;20093;-92
2024/03/14 11:14:40;;;;;;;5.93;3.60;;;17.30;67.70;;;;;;5027945;28;20069;-92
2024/03/14 11:17:10;;;;;;;4.38;3.08;;;17.10;71.50;;;;;;5024002;28;20630;-92
2024/03/14 11:19:40;;;;;;;4.55;3.03;;;17.10;71.20;;;;;;5037063;28;20136;-91
2024/03/14 11:22:07;;;;;;;3.47;2.78;;;17.30;71.50;;;;;;5036288;28;20029;-92
2024/03/14 11:24:33;;;;;;;4.63;3.13;;;17.30;68.80;;;;;;5034213;28;20081;-93
2024/03/14 11:27:04;;;;;;;3.85;3.08;;;17.10;69.30;;;;;;5045137;28;20038;-92
2024/03/14 11:29:33;;;;;;;3.78;2.40;;;17.60;69.10;;;;;;5034943;28;20033;-91
2024/03/14 11:32:16;;;;;;;6.03;2.00;;;17.90;64.30;;;;;;5034244;28;20025;-91
2024/03/14 11:34:42;;;;;;;4.63;2.33;;;17.60;62.10;;;;;;5021663;28;20029;-91
2024/03/14 11:37:08;;;;;;;2.08;1.27;;;18.00;61.70;;;;;;5031442;28;20049;-93
2024/03/14 11:39:37;;;;;;;2.63;1.95;;;18.40;57.50;;;;;;5033541;28;20025;-90
2024/03/14 11:42:11;;;;;;;2.20;1.40;;;18.40;58.40;;;;;;5029458;28;20507;-92
2024/03/14 11:44:39;;;;;;;2.10;1.67;;;18.20;59.10;;;;;;5036598;28;20029;-92
2024/03/14 11:47:13;;;;;;;3.90;1.30;;;18.10;59.60;;;;;;5028835;28;20022;-92
2024/03/14 11:49:43;;;;;;;2.13;1.77;;;17.90;58.70;;;;;;5036398;28;20029;-91
2024/03/14 11:52:11;;;;;;;2.53;1.77;;;18.20;59.40;;;;;;5028117;28;20516;-92
2024/03/14 11:54:38;;;;;;;3.90;1.52;;;18.60;57.20;;;;;;5017200;28;20018;-93
2024/03/14 11:57:05;;;;;;;2.28;1.15;;;18.90;56.10;;;;;;5018247;28;20509;-91
2024/03/14 11:59:30;;;;;;;2.67;2.20;;;18.80;55.80;;;;;;5019238;28;20042;-93
2024/03/14 12:01:56;;;;;;;4.95;2.33;;;18.90;56.30;;;;;;5019069;28;20025;-92
2024/03/14 12:04:22;;;;;;;3.78;2.10;;;19.20;54.20;;;;;;5034852;28;20021;-92
2024/03/14 12:06:47;;;;;;;2.13;1.17;;;19.10;54.40;;;;;;5027972;28;20040;-92
2024/03/14 12:09:24;;;;;;;2.55;1.40;;;19.40;53.90;;;;;;5036097;28;20105;-92
2024/03/14 12:11:50;;;;;;;2.10;1.38;;;19.50;52.80;;;;;;5024526;28;20079;-92
2024/03/14 12:14:19;;;;;;;3.42;1.60;;;19.30;53.80;;;;;;5015395;28;20029;-92
2024/03/14 12:16:46;;;;;;;2.75;1.30;;;19.50;53.50;;;;;;5015558;28;20030;-92
2024/03/14 12:19:19;;;;;;;2.58;1.63;;;20.30;51.20;;;;;;5022858;28;20022;-91
2024/03/14 12:21:53;;;;;;;2.28;1.52;;;19.80;51.00;;;;;;5031543;28;20029;-92
2024/03/14 12:24:20;;;;;;;2.55;1.60;;;20.20;50.70;;;;;;5036406;28;20040;-92
2024/03/14 12:26:47;;;;;;;1.67;0.95;;;21.00;50.10;;;;;;5034998;28;20072;-91
2024/03/14 12:29:12;;;;;;;1.73;1.33;;;20.50;47.60;;;;;;5034707;28;20021;-92
2024/03/14 12:31:40;;;;;;;4.47;1.40;;;21.00;46.80;;;;;;5032514;28;20064;-91
2024/03/14 12:34:06;;;;;;;2.58;1.27;;;20.50;47.90;;;;;;5028030;28;20479;-93
2024/03/14 12:36:32;;;;;;;1.33;0.95;;;20.40;48.30;;;;;;5033626;28;20468;-92
2024/03/14 12:38:59;;;;;;;1.63;1.00;;;20.20;49.00;;;;;;5034273;28;20040;-91
2024/03/14 12:41:25;;;;;;;3.05;1.30;;;20.40;49.50;;;;;;5034209;28;20516;-92
2024/03/14 12:43:52;;;;;;;2.35;1.08;;;20.30;48.00;;;;;;5034296;28;20112;-92
2024/03/14 12:46:19;;;;;;;3.65;1.42;;;20.50;47.90;;;;;;5033663;28;20033;-92
2024/03/14 12:48:47;;;;;;;2.05;1.85;;;19.50;50.30;;;;;;5034274;28;20056;-92
2024/03/14 12:51:17;;;;;;;2.00;1.17;;;19.40;51.70;;;;;;5032940;28;20033;-90
2024/03/14 12:53:56;;;;;;;2.50;1.40;;;19.20;51.60;;;;;;5028931;28;20037;-91
2024/03/14 12:56:25;;;;;;;2.25;1.65;;;19.60;50.50;;;;;;5035864;28;20061;-91